sensor_id;sensor_type;location;lat;lon;timestamp;pressure;altitude;pressure_sealevel;temperature;humidity
50650;BME280;36621;60.058;30.346;2022-08-01T04:05:09;101386.97;;;19.70;55.10
50650;BME280;36621;60.058;30.346;2022-08-01T04:12:45;101388.44;;;19.99;55.03
50650;BME280;36621;60.058;30.346;2022-08-01T04:20:17;101387.38;;;20.35;54.63
50650;BME280;36621;60.058;30.346;2022-08-01T04:27:50;101380.94;;;20.83;54.04
50650;BME280;36621;60.058;30.346;2022-08-01T04:35:25;101382.38;;;21.15;53.71
50650;BME280;36621;60.058;30.346;2022-08-01T04:42:58;101390.97;;;21.40;53.30
50650;BME280;36621;60.058;30.346;2022-08-01T04:50:30;101382.91;;;22.03;52.67
50650;BME280;36621;60.058;30.346;2022-08-01T04:58:02;101386.38;;;24.72;48.71
50650;BME280;36621;60.058;30.346;2022-08-01T05:05:35;101375.69;;;26.10;46.69
50650;BME280;36621;60.058;30.346;2022-08-01T05:13:07;101379.16;;;26.59;45.91
50650;BME280;36621;60.058;30.346;2022-08-01T05:20:40;101373.50;;;26.94;44.89
50650;BME280;36621;60.058;30.346;2022-08-01T05:28:13;101346.81;;;27.93;43.21
50650;BME280;36621;60.058;30.346;2022-08-01T05:35:46;101357.53;;;28.68;41.50
50650;BME280;36621;60.058;30.346;2022-08-01T05:43:20;101350.88;;;27.96;42.79
50650;BME280;36621;60.058;30.346;2022-08-01T05:50:54;101343.66;;;27.71;42.34
50650;BME280;36621;60.058;30.346;2022-08-01T05:58:27;101343.22;;;27.93;40.68
50650;BME280;36621;60.058;30.346;2022-08-01T06:06:16;101340.88;;;27.48;41.42
50650;BME280;36621;60.058;30.346;2022-08-01T06:13:56;101346.16;;;26.88;42.39
50650;BME280;36621;60.058;30.346;2022-08-01T06:21:36;101346.97;;;25.97;43.65
50650;BME280;36621;60.058;30.346;2022-08-01T06:29:10;101338.88;;;25.44;44.16
50650;BME280;36621;60.058;30.346;2022-08-01T06:36:52;101331.81;;;25.19;44.72
50650;BME280;36621;60.058;30.346;2022-08-01T06:44:23;101343.78;;;25.03;44.38
50650;BME280;36621;60.058;30.346;2022-08-01T06:51:56;101345.84;;;24.78;44.74
50650;BME280;36621;60.058;30.346;2022-08-01T07:33:13;101334.41;;;24.55;44.78
50650;BME280;36621;60.058;30.346;2022-08-01T07:40:45;101333.25;;;24.84;44.41
50650;BME280;36621;60.058;30.346;2022-08-01T07:48:18;101336.19;;;25.04;44.59
50650;BME280;36621;60.058;30.346;2022-08-01T07:55:54;101325.69;;;25.29;44.52
50650;BME280;36621;60.058;30.346;2022-08-01T08:03:27;101325.16;;;25.39;44.31
50650;BME280;36621;60.058;30.346;2022-08-01T08:10:59;101323.38;;;25.31;43.64
50650;BME280;36621;60.058;30.346;2022-08-01T08:18:39;101328.16;;;25.46;42.61
50650;BME280;36621;60.058;30.346;2022-08-01T08:26:17;101323.94;;;25.53;41.97
50650;BME280;36621;60.058;30.346;2022-08-01T08:34:04;101322.91;;;25.45;42.46
50650;BME280;36621;60.058;30.346;2022-08-01T08:51:26;101311.34;;;25.30;42.60
50650;BME280;36621;60.058;30.346;2022-08-01T08:58:59;101311.28;;;25.27;41.95
50650;BME280;36621;60.058;30.346;2022-08-01T09:06:45;101314.69;;;24.76;42.24
50650;BME280;36621;60.058;30.346;2022-08-01T09:14:18;101314.34;;;24.77;42.73
50650;BME280;36621;60.058;30.346;2022-08-01T09:22:09;101314.28;;;24.90;41.28
50650;BME280;36621;60.058;30.346;2022-08-01T09:30:20;101304.19;;;24.44;42.43
50650;BME280;36621;60.058;30.346;2022-08-01T09:37:59;101291.75;;;24.42;42.09
50650;BME280;36621;60.058;30.346;2022-08-01T09:46:03;101290.47;;;24.52;42.35
50650;BME280;36621;60.058;30.346;2022-08-01T09:53:57;101293.25;;;24.52;42.27
50650;BME280;36621;60.058;30.346;2022-08-01T10:27:22;101276.00;;;24.90;41.67
50650;BME280;36621;60.058;30.346;2022-08-01T10:34:56;101282.81;;;24.77;41.99
50650;BME280;36621;60.058;30.346;2022-08-01T10:42:52;101275.16;;;24.90;41.47
50650;BME280;36621;60.058;30.346;2022-08-01T10:50:40;101263.81;;;24.83;41.71
50650;BME280;36621;60.058;30.346;2022-08-01T11:07:51;101263.41;;;25.60;40.44
50650;BME280;36621;60.058;30.346;2022-08-01T11:32:26;101253.56;;;25.19;40.56
50650;BME280;36621;60.058;30.346;2022-08-01T11:40:14;101246.16;;;24.78;40.92
50650;BME280;36621;60.058;30.346;2022-08-01T11:47:48;101256.00;;;24.88;40.96
50650;BME280;36621;60.058;30.346;2022-08-01T11:55:20;101251.94;;;25.02;41.49
50650;BME280;36621;60.058;30.346;2022-08-01T12:02:57;101255.19;;;25.04;41.54
50650;BME280;36621;60.058;30.346;2022-08-01T12:10:31;101254.28;;;25.00;42.07
50650;BME280;36621;60.058;30.346;2022-08-01T12:18:08;101248.94;;;24.50;43.35
50650;BME280;36621;60.058;30.346;2022-08-01T12:25:41;101246.25;;;24.54;44.19
50650;BME280;36621;60.058;30.346;2022-08-01T12:33:17;101250.50;;;24.35;45.98
50650;BME280;36621;60.058;30.346;2022-08-01T13:07:06;101243.56;;;23.27;47.55
50650;BME280;36621;60.058;30.346;2022-08-01T13:31:44;101232.53;;;22.72;49.43
50650;BME280;36621;60.058;30.346;2022-08-01T13:39:15;101233.88;;;22.53;51.54
50650;BME280;36621;60.058;30.346;2022-08-01T13:47:06;101236.38;;;22.25;51.36
50650;BME280;36621;60.058;30.346;2022-08-01T13:54:38;101232.69;;;22.00;52.75
50650;BME280;36621;60.058;30.346;2022-08-01T14:02:12;101228.34;;;21.60;55.07
50650;BME280;36621;60.058;30.346;2022-08-01T14:09:59;101218.88;;;20.67;55.58
50650;BME280;36621;60.058;30.346;2022-08-01T14:17:47;101214.66;;;20.43;56.36
50650;BME280;36621;60.058;30.346;2022-08-01T14:25:43;101201.63;;;20.26;56.85
50650;BME280;36621;60.058;30.346;2022-08-01T14:34:26;101196.41;;;20.07;57.52
50650;BME280;36621;60.058;30.346;2022-08-01T14:42:18;101183.50;;;19.76;57.93
50650;BME280;36621;60.058;30.346;2022-08-01T14:49:52;101173.53;;;19.57;58.93
50650;BME280;36621;60.058;30.346;2022-08-01T14:57:24;101174.31;;;19.49;59.35
50650;BME280;36621;60.058;30.346;2022-08-01T15:04:57;101172.53;;;19.53;59.41
50650;BME280;36621;60.058;30.346;2022-08-01T15:12:29;101181.81;;;19.40;59.63
50650;BME280;36621;60.058;30.346;2022-08-01T15:20:02;101170.19;;;19.20;60.32
50650;BME280;36621;60.058;30.346;2022-08-01T15:27:34;101156.34;;;19.20;60.44
50650;BME280;36621;60.058;30.346;2022-08-01T15:35:07;101147.22;;;19.20;60.79
50650;BME280;36621;60.058;30.346;2022-08-01T15:42:40;101124.25;;;19.19;61.04
50650;BME280;36621;60.058;30.346;2022-08-01T15:50:13;101126.34;;;19.05;61.99
50650;BME280;36621;60.058;30.346;2022-08-01T15:57:45;101122.38;;;18.88;62.53
50650;BME280;36621;60.058;30.346;2022-08-01T16:05:17;101124.88;;;18.76;63.61
50650;BME280;36621;60.058;30.346;2022-08-01T16:12:49;101123.31;;;18.52;64.99
50650;BME280;36621;60.058;30.346;2022-08-01T16:20:22;101112.06;;;18.17;66.83
50650;BME280;36621;60.058;30.346;2022-08-01T16:27:53;101108.41;;;17.85;67.81
50650;BME280;36621;60.058;30.346;2022-08-01T16:35:26;101097.09;;;17.73;68.39
50650;BME280;36621;60.058;30.346;2022-08-01T16:42:58;101095.69;;;17.62;69.32
50650;BME280;36621;60.058;30.346;2022-08-01T16:50:30;101081.50;;;17.54;68.63
50650;BME280;36621;60.058;30.346;2022-08-01T16:58:03;101078.88;;;17.49;70.26
50650;BME280;36621;60.058;30.346;2022-08-01T17:05:36;101073.50;;;17.16;71.34
50650;BME280;36621;60.058;30.346;2022-08-01T17:21:36;101046.16;;;16.92;72.62
50650;BME280;36621;60.058;30.346;2022-08-01T17:29:07;101038.19;;;16.91;73.29
50650;BME280;36621;60.058;30.346;2022-08-01T17:36:43;101035.03;;;16.97;72.85
50650;BME280;36621;60.058;30.346;2022-08-01T17:44:18;101016.81;;;16.82;74.03
50650;BME280;36621;60.058;30.346;2022-08-01T17:51:50;101005.59;;;16.79;74.12
50650;BME280;36621;60.058;30.346;2022-08-01T17:59:22;101003.25;;;16.72;73.86
50650;BME280;36621;60.058;30.346;2022-08-01T18:07:00;100988.88;;;16.61;74.29
50650;BME280;36621;60.058;30.346;2022-08-01T18:14:35;100986.31;;;16.65;74.57
50650;BME280;36621;60.058;30.346;2022-08-01T18:22:35;100963.84;;;16.58;75.48
50650;BME280;36621;60.058;30.346;2022-08-01T18:30:07;100951.72;;;16.59;75.76
50650;BME280;36621;60.058;30.346;2022-08-01T18:37:39;100942.53;;;16.63;76.31
50650;BME280;36621;60.058;30.346;2022-08-01T18:45:11;100937.00;;;16.63;75.50
50650;BME280;36621;60.058;30.346;2022-08-01T18:52:43;100925.91;;;16.55;75.37
50650;BME280;36621;60.058;30.346;2022-08-01T19:00:15;100922.13;;;16.50;76.70
50650;BME280;36621;60.058;30.346;2022-08-01T19:07:48;100903.97;;;16.49;76.84
50650;BME280;36621;60.058;30.346;2022-08-01T19:15:20;100885.06;;;16.57;76.98
50650;BME280;36621;60.058;30.346;2022-08-01T19:22:52;100878.50;;;16.66;75.71
50650;BME280;36621;60.058;30.346;2022-08-01T19:30:24;100866.63;;;16.80;76.08
50650;BME280;36621;60.058;30.346;2022-08-01T19:37:57;100855.41;;;16.76;75.83
50650;BME280;36621;60.058;30.346;2022-08-01T19:45:29;100845.16;;;16.91;75.24
50650;BME280;36621;60.058;30.346;2022-08-01T19:53:02;100823.91;;;16.91;75.83
50650;BME280;36621;60.058;30.346;2022-08-01T20:00:35;100812.63;;;16.79;76.41
50650;BME280;36621;60.058;30.346;2022-08-01T20:08:07;100792.88;;;16.86;76.84
50650;BME280;36621;60.058;30.346;2022-08-01T20:15:39;100792.38;;;16.83;76.74
50650;BME280;36621;60.058;30.346;2022-08-01T20:23:15;100786.00;;;16.74;77.77
50650;BME280;36621;60.058;30.346;2022-08-01T20:30:47;100771.38;;;16.51;80.62
50650;BME280;36621;60.058;30.346;2022-08-01T20:38:24;100737.91;;;16.21;82.04
50650;BME280;36621;60.058;30.346;2022-08-01T20:45:58;100747.56;;;16.32;81.09
50650;BME280;36621;60.058;30.346;2022-08-01T20:53:31;100743.75;;;16.42;82.60
50650;BME280;36621;60.058;30.346;2022-08-01T21:01:06;100751.25;;;16.28;81.93
50650;BME280;36621;60.058;30.346;2022-08-01T21:08:40;100737.47;;;16.50;81.21
50650;BME280;36621;60.058;30.346;2022-08-01T21:16:12;100710.88;;;16.46;81.22
50650;BME280;36621;60.058;30.346;2022-08-01T21:23:46;100707.50;;;16.49;81.13
50650;BME280;36621;60.058;30.346;2022-08-01T21:31:28;100696.09;;;16.42;81.24
50650;BME280;36621;60.058;30.346;2022-08-01T21:39:04;100679.75;;;16.45;80.38
50650;BME280;36621;60.058;30.346;2022-08-01T21:46:36;100669.66;;;16.63;80.07
50650;BME280;36621;60.058;30.346;2022-08-01T21:54:11;100667.56;;;16.69;79.92
50650;BME280;36621;60.058;30.346;2022-08-01T22:01:47;100651.75;;;16.83;79.03
50650;BME280;36621;60.058;30.346;2022-08-01T22:09:23;100634.03;;;17.07;77.93
50650;BME280;36621;60.058;30.346;2022-08-01T22:16:55;100619.31;;;17.12;78.39
50650;BME280;36621;60.058;30.346;2022-08-01T22:24:28;100604.00;;;17.06;78.47
50650;BME280;36621;60.058;30.346;2022-08-01T22:32:00;100592.19;;;17.05;78.29
50650;BME280;36621;60.058;30.346;2022-08-01T22:39:33;100581.97;;;17.14;77.75
50650;BME280;36621;60.058;30.346;2022-08-01T22:47:06;100558.13;;;17.18;78.30
50650;BME280;36621;60.058;30.346;2022-08-01T22:54:39;100558.63;;;17.12;78.17
50650;BME280;36621;60.058;30.346;2022-08-01T23:02:13;100533.97;;;17.15;78.52
50650;BME280;36621;60.058;30.346;2022-08-01T23:09:45;100532.84;;;17.16;78.66
50650;BME280;36621;60.058;30.346;2022-08-01T23:17:18;100520.50;;;17.40;77.93
50650;BME280;36621;60.058;30.346;2022-08-01T23:24:51;100507.84;;;17.65;77.06
50650;BME280;36621;60.058;30.346;2022-08-01T23:32:24;100506.53;;;17.80;77.08
50650;BME280;36621;60.058;30.346;2022-08-01T23:39:56;100498.56;;;17.87;77.02
50650;BME280;36621;60.058;30.346;2022-08-01T23:47:28;100484.94;;;17.91;77.29
50650;BME280;36621;60.058;30.346;2022-08-01T23:55:01;100492.84;;;18.10;77.28
